sensor_id;sensor_type;location;lat;lon;timestamp;P1;durP1;ratioP1;P2;durP2;ratioP2
21202;SDS011;10759;51.982;9.232;2023-02-28T00:01:10;11.05;;;8.13;;
21202;SDS011;10759;51.982;9.232;2023-02-28T00:03:39;8.25;;;7.28;;
21202;SDS011;10759;51.982;9.232;2023-02-28T00:06:07;8.50;;;7.05;;
21202;SDS011;10759;51.982;9.232;2023-02-28T00:08:35;7.03;;;6.13;;
21202;SDS011;10759;51.982;9.232;2023-02-28T00:11:06;6.40;;;5.40;;
21202;SDS011;10759;51.982;9.232;2023-02-28T00:13:37;7.57;;;4.20;;
21202;SDS011;10759;51.982;9.232;2023-02-28T00:16:07;6.30;;;4.70;;
21202;SDS011;10759;51.982;9.232;2023-02-28T00:18:37;6.43;;;4.50;;
21202;SDS011;10759;51.982;9.232;2023-02-28T00:21:05;4.70;;;4.25;;
21202;SDS011;10759;51.982;9.232;2023-02-28T00:23:34;4.80;;;3.72;;
21202;SDS011;10759;51.982;9.232;2023-02-28T00:26:02;3.58;;;2.88;;
21202;SDS011;10759;51.982;9.232;2023-02-28T00:28:32;3.60;;;3.28;;
21202;SDS011;10759;51.982;9.232;2023-02-28T00:31:00;3.80;;;2.53;;
21202;SDS011;10759;51.982;9.232;2023-02-28T00:33:28;2.65;;;2.20;;
21202;SDS011;10759;51.982;9.232;2023-02-28T00:36:03;1.75;;;1.65;;
21202;SDS011;10759;51.982;9.232;2023-02-28T00:38:35;2.08;;;1.90;;
21202;SDS011;10759;51.982;9.232;2023-02-28T00:41:03;3.40;;;2.92;;
21202;SDS011;10759;51.982;9.232;2023-02-28T00:43:33;3.40;;;2.60;;
21202;SDS011;10759;51.982;9.232;2023-02-28T00:46:02;2.60;;;2.40;;
21202;SDS011;10759;51.982;9.232;2023-02-28T00:48:31;4.35;;;3.13;;
21202;SDS011;10759;51.982;9.232;2023-02-28T00:50:59;3.15;;;2.65;;
21202;SDS011;10759;51.982;9.232;2023-02-28T00:53:28;3.20;;;2.90;;
21202;SDS011;10759;51.982;9.232;2023-02-28T00:55:56;4.43;;;2.85;;
21202;SDS011;10759;51.982;9.232;2023-02-28T00:58:25;4.05;;;3.35;;
21202;SDS011;10759;51.982;9.232;2023-02-28T01:00:54;5.78;;;4.32;;
21202;SDS011;10759;51.982;9.232;2023-02-28T01:03:22;6.95;;;6.18;;
21202;SDS011;10759;51.982;9.232;2023-02-28T01:05:50;8.32;;;7.03;;
21202;SDS011;10759;51.982;9.232;2023-02-28T01:08:19;9.85;;;7.50;;
21202;SDS011;10759;51.982;9.232;2023-02-28T01:10:49;9.30;;;6.95;;
21202;SDS011;10759;51.982;9.232;2023-02-28T01:13:17;8.02;;;7.15;;
21202;SDS011;10759;51.982;9.232;2023-02-28T01:15:46;8.57;;;7.47;;
21202;SDS011;10759;51.982;9.232;2023-02-28T01:18:19;12.00;;;9.27;;
21202;SDS011;10759;51.982;9.232;2023-02-28T01:20:48;10.73;;;8.23;;
21202;SDS011;10759;51.982;9.232;2023-02-28T01:23:18;10.13;;;8.50;;
21202;SDS011;10759;51.982;9.232;2023-02-28T01:25:46;9.57;;;8.57;;
21202;SDS011;10759;51.982;9.232;2023-02-28T01:28:14;12.90;;;8.35;;
21202;SDS011;10759;51.982;9.232;2023-02-28T01:30:42;9.45;;;8.45;;
21202;SDS011;10759;51.982;9.232;2023-02-28T01:33:09;8.68;;;7.82;;
21202;SDS011;10759;51.982;9.232;2023-02-28T01:35:39;8.93;;;7.95;;
21202;SDS011;10759;51.982;9.232;2023-02-28T01:38:07;9.27;;;8.30;;
21202;SDS011;10759;51.982;9.232;2023-02-28T01:40:47;8.75;;;7.93;;
21202;SDS011;10759;51.982;9.232;2023-02-28T01:43:19;8.27;;;7.47;;
21202;SDS011;10759;51.982;9.232;2023-02-28T01:45:49;7.93;;;5.68;;
21202;SDS011;10759;51.982;9.232;2023-02-28T01:48:18;6.47;;;4.60;;
21202;SDS011;10759;51.982;9.232;2023-02-28T01:50:49;7.55;;;5.32;;
21202;SDS011;10759;51.982;9.232;2023-02-28T01:53:19;6.00;;;5.22;;
21202;SDS011;10759;51.982;9.232;2023-02-28T01:55:52;5.07;;;4.40;;
21202;SDS011;10759;51.982;9.232;2023-02-28T01:58:21;4.90;;;4.37;;
21202;SDS011;10759;51.982;9.232;2023-02-28T02:00:50;5.70;;;3.50;;
21202;SDS011;10759;51.982;9.232;2023-02-28T02:03:19;3.25;;;2.95;;
21202;SDS011;10759;51.982;9.232;2023-02-28T02:05:49;3.42;;;3.08;;
21202;SDS011;10759;51.982;9.232;2023-02-28T02:08:17;3.67;;;3.35;;
21202;SDS011;10759;51.982;9.232;2023-02-28T02:10:50;4.07;;;3.22;;
21202;SDS011;10759;51.982;9.232;2023-02-28T02:13:28;4.40;;;3.10;;
21202;SDS011;10759;51.982;9.232;2023-02-28T02:16:09;3.38;;;2.83;;
21202;SDS011;10759;51.982;9.232;2023-02-28T02:18:46;3.97;;;3.35;;
21202;SDS011;10759;51.982;9.232;2023-02-28T02:21:27;3.28;;;2.85;;
21202;SDS011;10759;51.982;9.232;2023-02-28T02:24:20;2.63;;;2.42;;
21202;SDS011;10759;51.982;9.232;2023-02-28T02:27:16;3.83;;;2.63;;
21202;SDS011;10759;51.982;9.232;2023-02-28T02:30:01;3.50;;;2.60;;
21202;SDS011;10759;51.982;9.232;2023-02-28T02:32:46;2.58;;;2.25;;
21202;SDS011;10759;51.982;9.232;2023-02-28T02:35:21;2.60;;;2.10;;
21202;SDS011;10759;51.982;9.232;2023-02-28T02:37:58;3.28;;;2.28;;
21202;SDS011;10759;51.982;9.232;2023-02-28T02:40:35;3.03;;;2.05;;
21202;SDS011;10759;51.982;9.232;2023-02-28T02:43:11;5.07;;;3.88;;
21202;SDS011;10759;51.982;9.232;2023-02-28T02:45:44;3.45;;;2.75;;
21202;SDS011;10759;51.982;9.232;2023-02-28T02:48:17;4.18;;;2.58;;
21202;SDS011;10759;51.982;9.232;2023-02-28T02:50:50;2.83;;;2.25;;
21202;SDS011;10759;51.982;9.232;2023-02-28T02:53:22;3.70;;;2.33;;
21202;SDS011;10759;51.982;9.232;2023-02-28T02:55:55;3.25;;;2.90;;
21202;SDS011;10759;51.982;9.232;2023-02-28T02:58:26;3.15;;;2.85;;
21202;SDS011;10759;51.982;9.232;2023-02-28T03:00:59;4.03;;;2.53;;
21202;SDS011;10759;51.982;9.232;2023-02-28T03:03:30;3.78;;;2.40;;
21202;SDS011;10759;51.982;9.232;2023-02-28T03:06:02;2.95;;;2.63;;
21202;SDS011;10759;51.982;9.232;2023-02-28T03:08:33;3.25;;;2.40;;
21202;SDS011;10759;51.982;9.232;2023-02-28T03:11:04;4.10;;;2.20;;
21202;SDS011;10759;51.982;9.232;2023-02-28T03:13:44;5.18;;;2.63;;
21202;SDS011;10759;51.982;9.232;2023-02-28T03:16:25;3.13;;;2.83;;
21202;SDS011;10759;51.982;9.232;2023-02-28T03:19:12;4.25;;;2.45;;
21202;SDS011;10759;51.982;9.232;2023-02-28T03:21:57;4.13;;;2.67;;
21202;SDS011;10759;51.982;9.232;2023-02-28T03:24:36;2.88;;;2.40;;
21202;SDS011;10759;51.982;9.232;2023-02-28T03:27:11;2.47;;;2.28;;
21202;SDS011;10759;51.982;9.232;2023-02-28T03:29:50;3.85;;;2.65;;
21202;SDS011;10759;51.982;9.232;2023-02-28T03:32:25;3.13;;;2.33;;
21202;SDS011;10759;51.982;9.232;2023-02-28T03:34:56;2.83;;;2.53;;
21202;SDS011;10759;51.982;9.232;2023-02-28T03:37:33;2.50;;;2.30;;
21202;SDS011;10759;51.982;9.232;2023-02-28T03:40:06;2.95;;;2.70;;
21202;SDS011;10759;51.982;9.232;2023-02-28T03:42:41;3.20;;;2.90;;
21202;SDS011;10759;51.982;9.232;2023-02-28T03:45:12;3.58;;;2.78;;
21202;SDS011;10759;51.982;9.232;2023-02-28T03:47:45;3.40;;;3.10;;
21202;SDS011;10759;51.982;9.232;2023-02-28T03:50:17;3.45;;;3.15;;
21202;SDS011;10759;51.982;9.232;2023-02-28T03:52:50;5.50;;;3.45;;
21202;SDS011;10759;51.982;9.232;2023-02-28T03:55:26;4.40;;;3.38;;
21202;SDS011;10759;51.982;9.232;2023-02-28T03:58:01;3.60;;;3.30;;
21202;SDS011;10759;51.982;9.232;2023-02-28T04:00:34;4.68;;;3.40;;
21202;SDS011;10759;51.982;9.232;2023-02-28T04:03:05;4.55;;;4.15;;
21202;SDS011;10759;51.982;9.232;2023-02-28T04:05:33;5.13;;;3.80;;
21202;SDS011;10759;51.982;9.232;2023-02-28T04:08:17;5.40;;;3.83;;
21202;SDS011;10759;51.982;9.232;2023-02-28T04:10:45;4.53;;;4.07;;
21202;SDS011;10759;51.982;9.232;2023-02-28T04:13:17;3.85;;;3.35;;
21202;SDS011;10759;51.982;9.232;2023-02-28T04:15:45;4.25;;;3.85;;
21202;SDS011;10759;51.982;9.232;2023-02-28T04:18:13;4.10;;;3.63;;
21202;SDS011;10759;51.982;9.232;2023-02-28T04:20:41;4.50;;;3.60;;
21202;SDS011;10759;51.982;9.232;2023-02-28T04:23:09;4.25;;;3.88;;
21202;SDS011;10759;51.982;9.232;2023-02-28T04:25:38;4.85;;;3.53;;
21202;SDS011;10759;51.982;9.232;2023-02-28T04:30:34;3.72;;;3.42;;
21202;SDS011;10759;51.982;9.232;2023-02-28T04:33:02;4.82;;;4.00;;
21202;SDS011;10759;51.982;9.232;2023-02-28T04:35:30;3.72;;;3.38;;
21202;SDS011;10759;51.982;9.232;2023-02-28T04:37:59;3.88;;;3.58;;
21202;SDS011;10759;51.982;9.232;2023-02-28T04:40:27;4.07;;;3.67;;
21202;SDS011;10759;51.982;9.232;2023-02-28T04:42:56;4.28;;;3.85;;
21202;SDS011;10759;51.982;9.232;2023-02-28T04:45:24;4.63;;;4.23;;
21202;SDS011;10759;51.982;9.232;2023-02-28T04:47:52;4.47;;;4.07;;
21202;SDS011;10759;51.982;9.232;2023-02-28T04:50:20;6.10;;;4.45;;
21202;SDS011;10759;51.982;9.232;2023-02-28T04:52:48;4.88;;;4.20;;
21202;SDS011;10759;51.982;9.232;2023-02-28T04:55:15;5.30;;;4.05;;
21202;SDS011;10759;51.982;9.232;2023-02-28T04:57:43;5.00;;;2.95;;
21202;SDS011;10759;51.982;9.232;2023-02-28T05:00:13;2.65;;;2.45;;
21202;SDS011;10759;51.982;9.232;2023-02-28T05:02:43;5.03;;;3.10;;
21202;SDS011;10759;51.982;9.232;2023-02-28T05:05:11;4.03;;;2.83;;
21202;SDS011;10759;51.982;9.232;2023-02-28T05:07:44;3.60;;;3.10;;
21202;SDS011;10759;51.982;9.232;2023-02-28T05:10:12;4.25;;;3.30;;
21202;SDS011;10759;51.982;9.232;2023-02-28T05:12:40;3.53;;;3.22;;
21202;SDS011;10759;51.982;9.232;2023-02-28T05:15:09;5.47;;;2.88;;
21202;SDS011;10759;51.982;9.232;2023-02-28T05:17:41;3.38;;;3.05;;
21202;SDS011;10759;51.982;9.232;2023-02-28T05:20:10;3.40;;;3.10;;
21202;SDS011;10759;51.982;9.232;2023-02-28T05:22:41;3.05;;;2.72;;
21202;SDS011;10759;51.982;9.232;2023-02-28T05:25:10;3.38;;;2.90;;
21202;SDS011;10759;51.982;9.232;2023-02-28T05:27:43;3.45;;;3.15;;
21202;SDS011;10759;51.982;9.232;2023-02-28T05:30:11;3.67;;;3.38;;
21202;SDS011;10759;51.982;9.232;2023-02-28T05:32:41;5.80;;;2.85;;
21202;SDS011;10759;51.982;9.232;2023-02-28T05:35:10;2.85;;;2.65;;
21202;SDS011;10759;51.982;9.232;2023-02-28T05:37:39;4.10;;;3.15;;
21202;SDS011;10759;51.982;9.232;2023-02-28T05:40:07;4.65;;;3.38;;
21202;SDS011;10759;51.982;9.232;2023-02-28T05:42:36;6.60;;;4.38;;
21202;SDS011;10759;51.982;9.232;2023-02-28T05:45:05;4.85;;;4.25;;
21202;SDS011;10759;51.982;9.232;2023-02-28T05:47:34;4.65;;;3.58;;
21202;SDS011;10759;51.982;9.232;2023-02-28T05:50:04;3.78;;;3.47;;
21202;SDS011;10759;51.982;9.232;2023-02-28T05:52:33;4.85;;;4.10;;
21202;SDS011;10759;51.982;9.232;2023-02-28T05:55:01;4.78;;;3.80;;
21202;SDS011;10759;51.982;9.232;2023-02-28T05:57:29;7.13;;;3.83;;
21202;SDS011;10759;51.982;9.232;2023-02-28T05:59:57;4.25;;;3.85;;
21202;SDS011;10759;51.982;9.232;2023-02-28T06:02:24;5.30;;;3.33;;
21202;SDS011;10759;51.982;9.232;2023-02-28T06:04:53;4.90;;;4.13;;
21202;SDS011;10759;51.982;9.232;2023-02-28T06:07:22;4.65;;;4.10;;
21202;SDS011;10759;51.982;9.232;2023-02-28T06:09:50;4.35;;;3.95;;
21202;SDS011;10759;51.982;9.232;2023-02-28T06:12:18;4.93;;;4.43;;
21202;SDS011;10759;51.982;9.232;2023-02-28T06:14:46;3.78;;;3.47;;
21202;SDS011;10759;51.982;9.232;2023-02-28T06:17:13;6.97;;;4.13;;
21202;SDS011;10759;51.982;9.232;2023-02-28T06:19:41;4.68;;;4.28;;
21202;SDS011;10759;51.982;9.232;2023-02-28T06:22:09;4.88;;;3.85;;
21202;SDS011;10759;51.982;9.232;2023-02-28T06:24:38;4.50;;;3.88;;
21202;SDS011;10759;51.982;9.232;2023-02-28T06:27:06;5.90;;;4.90;;
21202;SDS011;10759;51.982;9.232;2023-02-28T06:29:35;4.93;;;4.40;;
21202;SDS011;10759;51.982;9.232;2023-02-28T06:32:06;8.05;;;4.82;;
21202;SDS011;10759;51.982;9.232;2023-02-28T06:34:34;4.70;;;4.28;;
21202;SDS011;10759;51.982;9.232;2023-02-28T06:37:03;8.18;;;4.85;;
21202;SDS011;10759;51.982;9.232;2023-02-28T06:39:30;5.68;;;4.68;;
21202;SDS011;10759;51.982;9.232;2023-02-28T06:42:00;5.13;;;4.63;;
21202;SDS011;10759;51.982;9.232;2023-02-28T06:44:28;6.70;;;4.07;;
21202;SDS011;10759;51.982;9.232;2023-02-28T06:47:01;5.05;;;4.03;;
21202;SDS011;10759;51.982;9.232;2023-02-28T06:49:30;6.13;;;5.05;;
21202;SDS011;10759;51.982;9.232;2023-02-28T06:51:59;4.45;;;3.97;;
21202;SDS011;10759;51.982;9.232;2023-02-28T06:54:27;4.45;;;4.05;;
21202;SDS011;10759;51.982;9.232;2023-02-28T06:56:54;4.38;;;3.83;;
21202;SDS011;10759;51.982;9.232;2023-02-28T06:59:24;4.40;;;4.05;;
21202;SDS011;10759;51.982;9.232;2023-02-28T07:01:52;6.97;;;5.15;;
21202;SDS011;10759;51.982;9.232;2023-02-28T07:04:21;8.40;;;6.22;;
21202;SDS011;10759;51.982;9.232;2023-02-28T07:06:49;7.80;;;6.72;;
21202;SDS011;10759;51.982;9.232;2023-02-28T07:09:17;8.57;;;7.45;;
21202;SDS011;10759;51.982;9.232;2023-02-28T07:11:45;7.72;;;6.85;;
21202;SDS011;10759;51.982;9.232;2023-02-28T07:14:13;7.30;;;6.60;;
21202;SDS011;10759;51.982;9.232;2023-02-28T07:16:42;9.70;;;8.70;;
21202;SDS011;10759;51.982;9.232;2023-02-28T07:19:11;21.45;;;16.05;;
21202;SDS011;10759;51.982;9.232;2023-02-28T07:21:39;25.25;;;18.50;;
21202;SDS011;10759;51.982;9.232;2023-02-28T07:24:07;34.20;;;22.50;;
21202;SDS011;10759;51.982;9.232;2023-02-28T07:26:35;19.90;;;15.75;;
21202;SDS011;10759;51.982;9.232;2023-02-28T07:29:04;11.20;;;9.50;;
21202;SDS011;10759;51.982;9.232;2023-02-28T07:31:32;10.50;;;8.85;;
21202;SDS011;10759;51.982;9.232;2023-02-28T07:34:01;10.48;;;9.40;;
21202;SDS011;10759;51.982;9.232;2023-02-28T07:36:29;10.02;;;9.00;;
21202;SDS011;10759;51.982;9.232;2023-02-28T07:38:58;9.55;;;8.60;;
21202;SDS011;10759;51.982;9.232;2023-02-28T07:41:26;10.05;;;8.95;;
21202;SDS011;10759;51.982;9.232;2023-02-28T07:43:56;10.77;;;9.77;;
21202;SDS011;10759;51.982;9.232;2023-02-28T07:46:26;9.95;;;7.85;;
21202;SDS011;10759;51.982;9.232;2023-02-28T07:48:56;10.90;;;9.90;;
21202;SDS011;10759;51.982;9.232;2023-02-28T07:51:27;14.75;;;10.45;;
21202;SDS011;10759;51.982;9.232;2023-02-28T07:53:55;11.45;;;10.18;;
21202;SDS011;10759;51.982;9.232;2023-02-28T07:56:23;27.48;;;12.15;;
21202;SDS011;10759;51.982;9.232;2023-02-28T07:58:51;33.22;;;13.43;;
21202;SDS011;10759;51.982;9.232;2023-02-28T08:01:20;20.40;;;12.88;;
21202;SDS011;10759;51.982;9.232;2023-02-28T08:03:48;14.18;;;12.50;;
21202;SDS011;10759;51.982;9.232;2023-02-28T08:06:16;13.52;;;10.45;;
21202;SDS011;10759;51.982;9.232;2023-02-28T08:08:50;9.10;;;8.20;;
21202;SDS011;10759;51.982;9.232;2023-02-28T08:11:18;10.85;;;8.23;;
21202;SDS011;10759;51.982;9.232;2023-02-28T08:13:46;8.98;;;8.07;;
21202;SDS011;10759;51.982;9.232;2023-02-28T08:16:14;9.93;;;7.85;;
21202;SDS011;10759;51.982;9.232;2023-02-28T08:18:48;15.07;;;8.45;;
21202;SDS011;10759;51.982;9.232;2023-02-28T08:21:16;9.43;;;7.73;;
21202;SDS011;10759;51.982;9.232;2023-02-28T08:23:46;9.23;;;8.32;;
21202;SDS011;10759;51.982;9.232;2023-02-28T08:26:16;9.98;;;9.00;;
21202;SDS011;10759;51.982;9.232;2023-02-28T08:28:44;9.38;;;8.20;;
21202;SDS011;10759;51.982;9.232;2023-02-28T08:31:13;12.00;;;9.65;;
21202;SDS011;10759;51.982;9.232;2023-02-28T08:33:42;12.88;;;11.00;;
21202;SDS011;10759;51.982;9.232;2023-02-28T08:36:12;10.73;;;9.73;;
21202;SDS011;10759;51.982;9.232;2023-02-28T08:38:40;13.73;;;9.32;;
21202;SDS011;10759;51.982;9.232;2023-02-28T08:41:09;10.68;;;9.63;;
21202;SDS011;10759;51.982;9.232;2023-02-28T08:43:42;21.30;;;17.70;;
21202;SDS011;10759;51.982;9.232;2023-02-28T08:46:11;32.70;;;23.48;;
21202;SDS011;10759;51.982;9.232;2023-02-28T08:48:40;13.35;;;11.93;;
21202;SDS011;10759;51.982;9.232;2023-02-28T08:51:09;12.50;;;10.40;;
21202;SDS011;10759;51.982;9.232;2023-02-28T08:53:38;8.98;;;8.07;;
21202;SDS011;10759;51.982;9.232;2023-02-28T08:56:07;9.63;;;8.73;;
21202;SDS011;10759;51.982;9.232;2023-02-28T08:58:37;14.25;;;8.60;;
21202;SDS011;10759;51.982;9.232;2023-02-28T09:01:11;11.20;;;10.07;;
21202;SDS011;10759;51.982;9.232;2023-02-28T09:03:40;11.43;;;8.20;;
21202;SDS011;10759;51.982;9.232;2023-02-28T09:06:09;9.57;;;8.57;;
21202;SDS011;10759;51.982;9.232;2023-02-28T09:08:38;10.25;;;7.80;;
21202;SDS011;10759;51.982;9.232;2023-02-28T09:11:06;8.43;;;6.95;;
21202;SDS011;10759;51.982;9.232;2023-02-28T09:13:34;7.95;;;7.15;;
21202;SDS011;10759;51.982;9.232;2023-02-28T09:16:04;8.25;;;7.43;;
21202;SDS011;10759;51.982;9.232;2023-02-28T09:18:34;10.02;;;7.55;;
21202;SDS011;10759;51.982;9.232;2023-02-28T09:21:03;11.75;;;7.68;;
21202;SDS011;10759;51.982;9.232;2023-02-28T09:23:32;7.35;;;6.60;;
21202;SDS011;10759;51.982;9.232;2023-02-28T09:26:00;9.43;;;7.50;;
21202;SDS011;10759;51.982;9.232;2023-02-28T09:28:28;6.55;;;5.90;;
21202;SDS011;10759;51.982;9.232;2023-02-28T09:30:56;8.10;;;6.18;;
21202;SDS011;10759;51.982;9.232;2023-02-28T09:33:25;5.78;;;4.82;;
21202;SDS011;10759;51.982;9.232;2023-02-28T09:35:59;6.13;;;5.53;;
21202;SDS011;10759;51.982;9.232;2023-02-28T09:38:28;8.27;;;6.55;;
21202;SDS011;10759;51.982;9.232;2023-02-28T09:40:57;7.90;;;5.93;;
21202;SDS011;10759;51.982;9.232;2023-02-28T09:43:27;5.15;;;4.65;;
21202;SDS011;10759;51.982;9.232;2023-02-28T09:46:00;5.10;;;4.60;;
21202;SDS011;10759;51.982;9.232;2023-02-28T09:48:33;5.90;;;5.28;;
21202;SDS011;10759;51.982;9.232;2023-02-28T09:51:12;5.25;;;4.70;;
21202;SDS011;10759;51.982;9.232;2023-02-28T09:53:51;6.60;;;4.35;;
21202;SDS011;10759;51.982;9.232;2023-02-28T09:56:28;5.00;;;4.60;;
21202;SDS011;10759;51.982;9.232;2023-02-28T09:59:05;6.45;;;3.72;;
21202;SDS011;10759;51.982;9.232;2023-02-28T10:01:43;5.07;;;4.10;;
21202;SDS011;10759;51.982;9.232;2023-02-28T10:04:27;4.65;;;4.25;;
21202;SDS011;10759;51.982;9.232;2023-02-28T10:07:07;4.53;;;4.07;;
21202;SDS011;10759;51.982;9.232;2023-02-28T10:09:46;6.40;;;4.05;;
21202;SDS011;10759;51.982;9.232;2023-02-28T10:12:19;4.35;;;3.65;;
21202;SDS011;10759;51.982;9.232;2023-02-28T10:14:47;4.57;;;4.10;;
21202;SDS011;10759;51.982;9.232;2023-02-28T10:17:19;4.55;;;4.15;;
21202;SDS011;10759;51.982;9.232;2023-02-28T10:19:53;5.40;;;4.05;;
21202;SDS011;10759;51.982;9.232;2023-02-28T10:22:31;4.10;;;3.70;;
21202;SDS011;10759;51.982;9.232;2023-02-28T10:25:05;5.70;;;3.95;;
21202;SDS011;10759;51.982;9.232;2023-02-28T10:27:45;4.82;;;3.97;;
21202;SDS011;10759;51.982;9.232;2023-02-28T10:30:13;4.78;;;4.28;;
21202;SDS011;10759;51.982;9.232;2023-02-28T10:32:43;5.25;;;4.22;;
21202;SDS011;10759;51.982;9.232;2023-02-28T10:35:17;3.97;;;3.58;;
21202;SDS011;10759;51.982;9.232;2023-02-28T10:37:49;4.50;;;3.35;;
21202;SDS011;10759;51.982;9.232;2023-02-28T10:40:26;3.75;;;3.40;;
21202;SDS011;10759;51.982;9.232;2023-02-28T10:42:57;3.67;;;3.30;;
21202;SDS011;10759;51.982;9.232;2023-02-28T10:45:27;4.07;;;3.22;;
21202;SDS011;10759;51.982;9.232;2023-02-28T10:47:58;6.95;;;3.83;;
21202;SDS011;10759;51.982;9.232;2023-02-28T10:50:31;4.30;;;3.65;;
21202;SDS011;10759;51.982;9.232;2023-02-28T10:56:14;4.40;;;3.45;;
21202;SDS011;10759;51.982;9.232;2023-02-28T10:58:48;4.93;;;4.05;;
21202;SDS011;10759;51.982;9.232;2023-02-28T11:01:19;5.80;;;3.70;;
21202;SDS011;10759;51.982;9.232;2023-02-28T11:06:17;4.70;;;3.95;;
21202;SDS011;10759;51.982;9.232;2023-02-28T11:08:51;5.20;;;3.08;;
21202;SDS011;10759;51.982;9.232;2023-02-28T11:11:21;5.88;;;3.35;;
21202;SDS011;10759;51.982;9.232;2023-02-28T11:13:52;3.25;;;2.95;;
21202;SDS011;10759;51.982;9.232;2023-02-28T11:16:22;3.92;;;3.28;;
21202;SDS011;10759;51.982;9.232;2023-02-28T11:19:00;3.40;;;3.10;;
21202;SDS011;10759;51.982;9.232;2023-02-28T11:21:29;3.25;;;3.03;;
21202;SDS011;10759;51.982;9.232;2023-02-28T11:24:02;3.63;;;3.00;;
21202;SDS011;10759;51.982;9.232;2023-02-28T11:26:40;4.85;;;3.28;;
21202;SDS011;10759;51.982;9.232;2023-02-28T11:31:39;3.42;;;2.92;;
21202;SDS011;10759;51.982;9.232;2023-02-28T11:34:22;5.75;;;3.28;;
21202;SDS011;10759;51.982;9.232;2023-02-28T11:36:53;3.08;;;2.78;;
21202;SDS011;10759;51.982;9.232;2023-02-28T11:39:24;3.45;;;2.92;;
21202;SDS011;10759;51.982;9.232;2023-02-28T11:41:57;3.45;;;3.10;;
21202;SDS011;10759;51.982;9.232;2023-02-28T11:44:53;3.20;;;2.85;;
21202;SDS011;10759;51.982;9.232;2023-02-28T11:47:32;3.35;;;3.03;;
21202;SDS011;10759;51.982;9.232;2023-02-28T11:50:11;2.92;;;2.63;;
21202;SDS011;10759;51.982;9.232;2023-02-28T11:52:48;4.82;;;3.17;;
21202;SDS011;10759;51.982;9.232;2023-02-28T11:55:23;6.88;;;4.10;;
21202;SDS011;10759;51.982;9.232;2023-02-28T12:00:52;2.78;;;2.53;;
21202;SDS011;10759;51.982;9.232;2023-02-28T12:03:31;3.75;;;2.85;;
21202;SDS011;10759;51.982;9.232;2023-02-28T12:06:10;3.75;;;2.83;;
21202;SDS011;10759;51.982;9.232;2023-02-28T12:08:52;3.35;;;2.67;;
21202;SDS011;10759;51.982;9.232;2023-02-28T12:14:34;3.45;;;2.58;;
21202;SDS011;10759;51.982;9.232;2023-02-28T12:17:17;4.03;;;3.00;;
21202;SDS011;10759;51.982;9.232;2023-02-28T12:19:56;2.80;;;2.50;;
21202;SDS011;10759;51.982;9.232;2023-02-28T12:22:30;4.28;;;2.78;;
21202;SDS011;10759;51.982;9.232;2023-02-28T12:25:02;3.33;;;2.70;;
21202;SDS011;10759;51.982;9.232;2023-02-28T12:27:50;3.35;;;2.85;;
21202;SDS011;10759;51.982;9.232;2023-02-28T12:30:21;3.20;;;2.88;;
21202;SDS011;10759;51.982;9.232;2023-02-28T12:32:53;3.80;;;2.30;;
21202;SDS011;10759;51.982;9.232;2023-02-28T12:35:25;3.10;;;2.80;;
21202;SDS011;10759;51.982;9.232;2023-02-28T12:38:01;2.90;;;2.70;;
21202;SDS011;10759;51.982;9.232;2023-02-28T12:40:34;3.60;;;2.40;;
21202;SDS011;10759;51.982;9.232;2023-02-28T12:43:12;4.88;;;3.13;;
21202;SDS011;10759;51.982;9.232;2023-02-28T12:45:43;3.08;;;2.38;;
21202;SDS011;10759;51.982;9.232;2023-02-28T12:48:17;6.72;;;3.15;;
21202;SDS011;10759;51.982;9.232;2023-02-28T12:50:51;4.18;;;2.88;;
21202;SDS011;10759;51.982;9.232;2023-02-28T12:53:21;5.60;;;3.40;;
21202;SDS011;10759;51.982;9.232;2023-02-28T12:55:57;4.05;;;3.10;;
21202;SDS011;10759;51.982;9.232;2023-02-28T12:58:38;3.00;;;2.42;;
21202;SDS011;10759;51.982;9.232;2023-02-28T13:01:13;3.28;;;2.97;;
21202;SDS011;10759;51.982;9.232;2023-02-28T13:04:07;3.80;;;2.88;;
21202;SDS011;10759;51.982;9.232;2023-02-28T13:06:58;2.83;;;2.22;;
21202;SDS011;10759;51.982;9.232;2023-02-28T13:09:38;3.63;;;2.75;;
21202;SDS011;10759;51.982;9.232;2023-02-28T13:12:12;3.13;;;2.83;;
21202;SDS011;10759;51.982;9.232;2023-02-28T13:14:42;2.90;;;2.70;;
21202;SDS011;10759;51.982;9.232;2023-02-28T13:17:11;3.38;;;3.08;;
21202;SDS011;10759;51.982;9.232;2023-02-28T13:19:46;3.97;;;3.28;;
21202;SDS011;10759;51.982;9.232;2023-02-28T13:22:39;3.13;;;2.83;;
21202;SDS011;10759;51.982;9.232;2023-02-28T13:34:40;5.22;;;4.72;;
21202;SDS011;10759;51.982;9.232;2023-02-28T13:37:32;3.35;;;2.90;;
21202;SDS011;10759;51.982;9.232;2023-02-28T13:43:05;6.13;;;3.13;;
21202;SDS011;10759;51.982;9.232;2023-02-28T13:45:35;3.00;;;2.80;;
21202;SDS011;10759;51.982;9.232;2023-02-28T13:48:05;3.17;;;2.88;;
21202;SDS011;10759;51.982;9.232;2023-02-28T13:50:45;2.85;;;2.65;;
21202;SDS011;10759;51.982;9.232;2023-02-28T13:56:30;3.72;;;3.40;;
21202;SDS011;10759;51.982;9.232;2023-02-28T13:59:13;3.47;;;3.10;;
21202;SDS011;10759;51.982;9.232;2023-02-28T14:01:55;3.38;;;3.00;;
21202;SDS011;10759;51.982;9.232;2023-02-28T14:04:46;3.65;;;2.83;;
21202;SDS011;10759;51.982;9.232;2023-02-28T14:07:23;3.47;;;3.17;;
21202;SDS011;10759;51.982;9.232;2023-02-28T14:09:59;3.83;;;3.10;;
21202;SDS011;10759;51.982;9.232;2023-02-28T14:15:46;3.65;;;2.80;;
21202;SDS011;10759;51.982;9.232;2023-02-28T14:18:21;3.25;;;2.97;;
21202;SDS011;10759;51.982;9.232;2023-02-28T14:20:57;4.13;;;3.10;;
21202;SDS011;10759;51.982;9.232;2023-02-28T14:29:56;3.38;;;2.60;;
21202;SDS011;10759;51.982;9.232;2023-02-28T14:32:34;3.40;;;2.40;;
21202;SDS011;10759;51.982;9.232;2023-02-28T14:35:12;3.70;;;3.17;;
21202;SDS011;10759;51.982;9.232;2023-02-28T14:37:49;3.03;;;2.83;;
21202;SDS011;10759;51.982;9.232;2023-02-28T14:40:19;3.13;;;2.83;;
21202;SDS011;10759;51.982;9.232;2023-02-28T14:42:56;4.32;;;2.95;;
21202;SDS011;10759;51.982;9.232;2023-02-28T14:45:26;3.33;;;3.03;;
21202;SDS011;10759;51.982;9.232;2023-02-28T14:47:56;3.72;;;3.08;;
21202;SDS011;10759;51.982;9.232;2023-02-28T14:50:27;6.68;;;4.70;;
21202;SDS011;10759;51.982;9.232;2023-02-28T14:52:58;6.03;;;4.68;;
21202;SDS011;10759;51.982;9.232;2023-02-28T14:55:26;8.13;;;6.03;;
21202;SDS011;10759;51.982;9.232;2023-02-28T14:57:59;4.07;;;3.70;;
21202;SDS011;10759;51.982;9.232;2023-02-28T15:00:29;4.65;;;4.18;;
21202;SDS011;10759;51.982;9.232;2023-02-28T15:02:59;7.20;;;5.30;;
21202;SDS011;10759;51.982;9.232;2023-02-28T15:05:29;7.15;;;4.13;;
21202;SDS011;10759;51.982;9.232;2023-02-28T15:08:02;4.53;;;4.13;;
21202;SDS011;10759;51.982;9.232;2023-02-28T15:10:33;6.95;;;5.32;;
21202;SDS011;10759;51.982;9.232;2023-02-28T15:13:04;3.97;;;3.40;;
21202;SDS011;10759;51.982;9.232;2023-02-28T15:15:44;3.47;;;3.17;;
21202;SDS011;10759;51.982;9.232;2023-02-28T15:18:31;4.13;;;3.40;;
21202;SDS011;10759;51.982;9.232;2023-02-28T15:21:06;4.05;;;3.05;;
21202;SDS011;10759;51.982;9.232;2023-02-28T15:23:38;3.45;;;3.15;;
21202;SDS011;10759;51.982;9.232;2023-02-28T15:26:10;5.07;;;2.95;;
21202;SDS011;10759;51.982;9.232;2023-02-28T15:28:44;4.85;;;4.35;;
21202;SDS011;10759;51.982;9.232;2023-02-28T15:31:20;3.88;;;2.83;;
21202;SDS011;10759;51.982;9.232;2023-02-28T15:36:23;3.30;;;3.00;;
21202;SDS011;10759;51.982;9.232;2023-02-28T15:38:54;3.70;;;3.17;;
21202;SDS011;10759;51.982;9.232;2023-02-28T15:41:35;3.58;;;3.28;;
21202;SDS011;10759;51.982;9.232;2023-02-28T15:44:16;6.20;;;3.00;;
21202;SDS011;10759;51.982;9.232;2023-02-28T15:46:54;4.47;;;3.08;;
21202;SDS011;10759;51.982;9.232;2023-02-28T15:49:24;3.65;;;2.97;;
21202;SDS011;10759;51.982;9.232;2023-02-28T15:51:53;3.08;;;2.70;;
21202;SDS011;10759;51.982;9.232;2023-02-28T15:54:24;4.50;;;2.90;;
21202;SDS011;10759;51.982;9.232;2023-02-28T15:56:57;3.47;;;3.17;;
21202;SDS011;10759;51.982;9.232;2023-02-28T15:59:29;3.33;;;3.03;;